Jackson Hole Airport
KJAC : now visible

Airfield :











YOU CAN JOIN US ON...

 
LOGIN :

Register | Disclaimer

   EN    FR    IT 

 









Legend :    VFR   Marginal VFR   IFR   Intensive IFR   Very Intensive IFR
Visi :
Ceiling :
>= 8 km
>= 3000ft
5 to 8 km
1000 to 3000 ft
1500m to 5 km
500 to 1000 ft
800 to 1500m
200 to 500 ft
< 800m
< 200 ft
Symbols :   Thunderstorms  Fog  Heavy snow  Heavy precipitations  Wind > 20 kt






- Airport Elevation : 6451 ft
- IATA code : JAC


KJAC - Jackson Hole

CURRENT METAR :
  • 060156Z 00000KT 10SM BKN044 OVC070 03/M01 A2975 RMK AO2 SLP091 T00281006

EXPIRED METARs :
  • 060056Z 09005KT 10SM BKN048 OVC070 03/00 A2976 RMK AO2 SLP097 T00280000
  • 060020Z 12003KT 10SM SCT023 OVC046 03/M01 A2976 RMK AO2
  • 052356Z 07003KT 10SM BKN023 OVC060 03/00 A2976 RMK AO2 SLP098 60001 T00280000 10056 20011 55004

TAF KJAC
Valid from the 06 at 00:00 until the 07 at 00:00 UTC


060015Z 0600/0624 07004KT P6SM VCSH SCT025 BKN050
TEMPO 0600/0604 OVC025
FM060500 19007KT 5SM -SN SCT015 OVC025
FM061300 20008KT 2SM -SN SCT008 BKN015 OVC025



MET'MAP, your aeronautical weather chart ! - Copyright ORBIFLY December 2007 - Disclaimer

ORBIFLY MET'MAP TEAM :

Programming & Development : Alexandra Zaïnal
Concept & original design : Baudouin d'Aumeries
Assistance for programming : Marc-Olivier Méhu
Technical & hardware support : Manuel Goepfert

Contact : metmap@orbifly.com




SOURCES & CREDITS :

   NOAA       Earth
Advisory